createdAt,value
2023-01-25T00:01:59.699Z,2.61
2023-01-25T00:04:26.417Z,2.62
2023-01-25T00:06:52.811Z,2.59
2023-01-25T00:09:20.128Z,2.65
2023-01-25T00:11:47.037Z,2.61
2023-01-25T00:14:14.781Z,2.62
2023-01-25T00:16:41.926Z,2.60
2023-01-25T00:19:09.524Z,2.63
2023-01-25T00:21:36.951Z,2.72
2023-01-25T00:24:03.839Z,2.80
2023-01-25T00:26:30.877Z,2.86
2023-01-25T00:28:57.431Z,2.83
2023-01-25T00:31:50.332Z,2.83
2023-01-25T00:34:25.817Z,2.72
2023-01-25T00:36:57.049Z,2.66
2023-01-25T00:39:25.940Z,2.61
2023-01-25T00:41:52.363Z,2.63
2023-01-25T00:44:18.821Z,2.61
2023-01-25T00:46:45.400Z,2.55
2023-01-25T00:49:24.298Z,2.54
2023-01-25T00:51:52.155Z,2.55
2023-01-25T00:54:20.111Z,2.52
2023-01-25T00:56:46.790Z,2.61
2023-01-25T00:59:15.611Z,2.55
2023-01-25T01:01:42.245Z,2.60
2023-01-25T01:04:08.904Z,2.58
2023-01-25T01:06:36.705Z,2.59
2023-01-25T01:09:04.082Z,2.61
2023-01-25T01:11:31.712Z,2.56
2023-01-25T01:13:59.113Z,2.70
2023-01-25T01:16:26.734Z,2.70
2023-01-25T01:18:53.536Z,2.65
2023-01-25T01:21:20.798Z,2.62
2023-01-25T01:23:47.248Z,2.70
2023-01-25T01:26:16.227Z,2.73
2023-01-25T01:28:43.018Z,2.66
2023-01-25T01:31:16.302Z,2.67
2023-01-25T01:33:53.027Z,2.68
2023-01-25T01:36:22.179Z,2.60
2023-01-25T01:38:48.879Z,2.55
2023-01-25T01:41:16.507Z,2.55
2023-01-25T01:43:43.020Z,2.58
2023-01-25T01:46:37.276Z,2.59
2023-01-25T01:49:13.145Z,2.65
2023-01-25T01:51:48.341Z,2.64
2023-01-25T01:54:32.712Z,2.72
2023-01-25T01:57:10.464Z,2.67
2023-01-25T01:59:44.383Z,2.63
2023-01-25T02:02:12.114Z,2.62
2023-01-25T02:04:38.632Z,2.59
2023-01-25T02:07:34.699Z,2.56
2023-01-25T02:10:03.497Z,2.60
2023-01-25T02:12:30.217Z,2.59
2023-01-25T02:14:56.619Z,2.70
2023-01-25T02:17:28.016Z,2.64
2023-01-25T02:20:03.773Z,2.58
2023-01-25T02:23:01.267Z,2.59
2023-01-25T02:25:28.977Z,2.59
2023-01-25T02:28:04.284Z,2.60
2023-01-25T02:30:31.074Z,2.61
2023-01-25T02:32:57.500Z,2.64
2023-01-25T02:35:36.977Z,2.64
2023-01-25T02:38:05.267Z,2.70
2023-01-25T02:40:36.426Z,2.74
2023-01-25T02:43:02.753Z,2.68
2023-01-25T02:45:30.301Z,2.85
2023-01-25T02:47:56.749Z,2.70
2023-01-25T02:50:23.188Z,2.75
2023-01-25T02:52:49.611Z,2.75
2023-01-25T02:55:16.247Z,2.63
2023-01-25T02:57:44.199Z,2.71
2023-01-25T03:00:11.120Z,2.87
2023-01-25T03:02:37.607Z,2.85
2023-01-25T03:05:04.266Z,2.84
2023-01-25T03:07:30.749Z,2.77
2023-01-25T03:09:58.038Z,2.80
2023-01-25T03:12:24.725Z,2.83
2023-01-25T03:14:52.768Z,2.81
2023-01-25T03:17:20.007Z,2.66
2023-01-25T03:19:46.511Z,2.69
2023-01-25T03:22:12.974Z,2.68
2023-01-25T03:24:40.218Z,2.81
2023-01-25T03:27:18.396Z,2.90
2023-01-25T03:29:51.595Z,2.84
2023-01-25T03:32:23.297Z,2.84
2023-01-25T03:34:49.911Z,2.85
2023-01-25T03:37:18.247Z,2.81
2023-01-25T03:39:44.731Z,2.71
2023-01-25T03:42:11.703Z,2.64
2023-01-25T03:44:38.476Z,2.64
2023-01-25T03:47:05.036Z,2.74
2023-01-25T03:49:31.521Z,2.84
2023-01-25T03:51:58.627Z,2.79
2023-01-25T03:54:35.970Z,2.83
2023-01-25T03:57:02.533Z,2.70
2023-01-25T03:59:31.611Z,2.70
2023-01-25T04:01:58.842Z,2.75
2023-01-25T04:04:25.653Z,2.73
2023-01-25T04:06:52.920Z,2.83
2023-01-25T04:09:20.651Z,2.89
2023-01-25T04:11:51.561Z,2.89
2023-01-25T04:14:25.505Z,2.76
2023-01-25T04:17:05.324Z,2.82
2023-01-25T04:19:41.515Z,2.91
2023-01-25T04:22:12.910Z,2.94
2023-01-25T04:24:39.718Z,2.96
2023-01-25T04:27:06.528Z,2.89
2023-01-25T04:29:41.468Z,2.90
2023-01-25T04:32:11.998Z,2.84
2023-01-25T04:34:38.501Z,2.92
2023-01-25T04:37:07.650Z,2.87
2023-01-25T04:39:42.505Z,3.04
2023-01-25T04:42:09.078Z,2.85
2023-01-25T04:44:35.564Z,2.91
2023-01-25T04:47:03.746Z,2.79
2023-01-25T04:49:30.329Z,2.73
2023-01-25T04:51:56.887Z,2.86
2023-01-25T04:54:23.876Z,2.74
2023-01-25T04:56:50.354Z,2.93
2023-01-25T04:59:17.227Z,2.84
2023-01-25T05:01:43.808Z,2.82
2023-01-25T05:04:10.265Z,2.91
2023-01-25T05:06:43.429Z,2.96
2023-01-25T05:09:10.265Z,2.88
2023-01-25T05:11:36.792Z,2.85
2023-01-25T05:14:09.924Z,2.87
2023-01-25T05:16:36.483Z,2.97
2023-01-25T05:19:03.617Z,2.93
2023-01-25T05:21:55.690Z,2.93
2023-01-25T05:24:22.447Z,2.93
2023-01-25T05:27:01.610Z,2.91
2023-01-25T05:29:43.514Z,3.02
2023-01-25T05:32:11.708Z,2.97
2023-01-25T05:34:38.990Z,3.02
2023-01-25T05:37:07.624Z,3.04
2023-01-25T05:39:36.773Z,3.01
2023-01-25T05:42:03.822Z,2.96
2023-01-25T05:44:30.421Z,2.99
2023-01-25T05:46:56.978Z,3.00
2023-01-25T05:49:23.430Z,3.00
2023-01-25T05:51:49.847Z,2.97
2023-01-25T05:54:17.747Z,2.95
2023-01-25T05:56:50.750Z,2.99
2023-01-25T05:59:18.115Z,3.06
2023-01-25T06:01:44.854Z,3.07
2023-01-25T06:04:15.705Z,3.06
2023-01-25T06:06:42.176Z,3.06
2023-01-25T06:09:11.914Z,3.16
2023-01-25T06:11:38.493Z,3.02
2023-01-25T06:14:05.027Z,2.90
2023-01-25T06:16:31.604Z,2.86
2023-01-25T06:19:06.554Z,2.92
2023-01-25T06:21:45.188Z,2.98
2023-01-25T06:24:11.690Z,2.95
2023-01-25T06:26:38.874Z,2.94
2023-01-25T06:29:30.937Z,2.97
2023-01-25T06:31:57.515Z,3.05
2023-01-25T06:34:24.772Z,3.05
2023-01-25T06:36:52.313Z,3.08
2023-01-25T06:39:18.701Z,3.04
2023-01-25T06:41:45.113Z,3.06
2023-01-25T06:44:11.589Z,3.06
2023-01-25T06:46:38.050Z,3.03
2023-01-25T06:49:05.580Z,3.08
2023-01-25T06:51:32.034Z,3.09
2023-01-25T06:54:50.834Z,3.04
2023-01-25T06:57:17.247Z,3.04
2023-01-25T06:59:43.652Z,3.11
2023-01-25T07:02:15.574Z,3.06
2023-01-25T07:04:42.263Z,3.06
2023-01-25T07:07:09.485Z,3.15
2023-01-25T07:09:36.343Z,3.07
2023-01-25T07:12:04.702Z,3.15
2023-01-25T07:14:31.614Z,2.98
2023-01-25T07:16:58.361Z,2.97
2023-01-25T07:19:24.761Z,2.91
2023-01-25T07:21:51.352Z,2.78
2023-01-25T07:24:20.136Z,2.89
2023-01-25T07:26:49.167Z,2.81
2023-01-25T07:29:16.281Z,2.89
2023-01-25T07:31:42.832Z,2.82
2023-01-25T07:34:13.021Z,2.86
2023-01-25T07:36:40.952Z,2.83
2023-01-25T07:39:10.317Z,2.79
2023-01-25T07:41:36.713Z,2.92
2023-01-25T07:44:03.463Z,2.93
2023-01-25T07:46:39.827Z,2.88
2023-01-25T07:49:06.865Z,2.93
2023-01-25T07:51:33.305Z,3.00
2023-01-25T07:53:59.629Z,2.79
2023-01-25T07:56:31.669Z,2.80
2023-01-25T07:58:59.530Z,2.78
2023-01-25T08:01:27.678Z,2.75
2023-01-25T08:03:56.125Z,2.59
2023-01-25T08:06:30.744Z,2.71
2023-01-25T08:08:59.210Z,2.73
2023-01-25T08:11:28.492Z,2.58
2023-01-25T08:13:55.563Z,2.55
2023-01-25T08:16:25.014Z,2.59
2023-01-25T08:18:57.602Z,2.73
2023-01-25T08:21:28.964Z,2.75
2023-01-25T08:23:57.550Z,2.73
2023-01-25T08:26:24.030Z,2.72
2023-01-25T08:28:52.931Z,2.66
2023-01-25T08:31:25.309Z,2.52
2023-01-25T08:33:52.548Z,2.48
2023-01-25T08:36:20.092Z,2.44
2023-01-25T08:38:47.500Z,2.43
2023-01-25T08:41:19.601Z,2.50
2023-01-25T08:43:47.038Z,2.41
2023-01-25T08:46:17.886Z,2.46
2023-01-25T08:48:44.485Z,2.64
2023-01-25T08:51:16.116Z,2.62
2023-01-25T08:53:42.917Z,2.70
2023-01-25T08:56:12.130Z,2.61
2023-01-25T08:58:41.324Z,2.66
2023-01-25T09:01:10.199Z,2.66
2023-01-25T09:03:38.618Z,2.55
2023-01-25T09:06:05.518Z,2.53
2023-01-25T09:08:32.891Z,2.63
2023-01-25T09:11:07.836Z,2.52
2023-01-25T09:13:34.372Z,2.60
2023-01-25T09:16:06.507Z,2.75
2023-01-25T09:18:35.357Z,2.72
2023-01-25T09:21:18.249Z,2.68
2023-01-25T09:24:05.725Z,2.70
2023-01-25T09:26:34.263Z,2.59
2023-01-25T09:29:00.691Z,2.41
2023-01-25T09:31:30.123Z,2.50
2023-01-25T09:34:14.379Z,2.43
2023-01-25T09:36:40.981Z,2.47
2023-01-25T09:39:07.741Z,2.41
2023-01-25T09:42:00.724Z,2.44
2023-01-25T09:44:47.889Z,2.52
2023-01-25T09:47:34.015Z,2.38
2023-01-25T09:50:33.011Z,2.50
2023-01-25T09:53:18.129Z,2.47
2023-01-25T09:55:44.656Z,2.64
2023-01-25T09:58:19.710Z,2.50
2023-01-25T10:00:48.124Z,2.47
2023-01-25T10:03:22.524Z,2.48
2023-01-25T10:05:51.772Z,2.37
2023-01-25T10:08:49.158Z,2.32
2023-01-25T10:11:28.008Z,2.33
2023-01-25T10:13:58.750Z,2.43
2023-01-25T10:16:46.319Z,2.44
2023-01-25T10:19:22.719Z,2.47
2023-01-25T10:22:08.482Z,2.36
2023-01-25T10:24:53.594Z,2.42
2023-01-25T10:27:31.955Z,2.31
2023-01-25T10:30:02.549Z,2.38
2023-01-25T10:32:35.920Z,2.51
2023-01-25T10:35:29.224Z,2.56
2023-01-25T10:38:05.704Z,2.70
2023-01-25T10:40:41.832Z,2.62
2023-01-25T10:43:16.848Z,2.46
2023-01-25T10:45:44.528Z,2.34
2023-01-25T10:48:17.575Z,2.46
2023-01-25T10:50:47.028Z,2.47
2023-01-25T10:53:31.818Z,2.50
2023-01-25T10:56:08.674Z,2.51
2023-01-25T10:58:40.357Z,2.41
2023-01-25T11:01:13.451Z,2.47
2023-01-25T11:03:44.649Z,2.43
2023-01-25T11:06:11.206Z,2.51
2023-01-25T11:08:42.022Z,2.37
2023-01-25T11:11:25.373Z,2.14
2023-01-25T11:13:54.907Z,2.26
2023-01-25T11:16:33.411Z,2.18
2023-01-25T11:19:02.649Z,2.25
2023-01-25T11:21:31.590Z,2.28
2023-01-25T11:24:17.389Z,2.44
2023-01-25T11:26:44.746Z,2.51
2023-01-25T11:29:18.444Z,2.51
2023-01-25T11:31:51.441Z,2.56
2023-01-25T11:34:26.219Z,2.49
2023-01-25T11:37:25.645Z,2.53
2023-01-25T11:40:19.623Z,2.38
2023-01-25T11:43:07.793Z,2.45
2023-01-25T11:46:09.473Z,2.50
2023-01-25T11:48:57.623Z,2.43
2023-01-25T11:51:41.179Z,2.46
2023-01-25T11:54:25.985Z,2.42
2023-01-25T11:57:10.821Z,2.30
2023-01-25T11:59:57.515Z,2.30
2023-01-25T12:02:49.764Z,2.38
2023-01-25T12:05:41.630Z,2.49
2023-01-25T12:08:19.351Z,2.29
2023-01-25T12:11:07.643Z,2.21
2023-01-25T12:13:58.520Z,2.22
2023-01-25T12:16:56.279Z,2.40
2023-01-25T12:19:56.101Z,2.45
2023-01-25T12:22:53.703Z,2.41
2023-01-25T12:25:38.682Z,2.36
2023-01-25T12:28:19.634Z,2.45
2023-01-25T12:31:10.088Z,2.33
2023-01-25T12:33:45.514Z,2.08
2023-01-25T12:36:22.872Z,2.17
2023-01-25T12:38:57.231Z,2.20
2023-01-25T12:41:33.244Z,2.09
2023-01-25T12:44:19.469Z,2.26
2023-01-25T12:46:59.437Z,2.33
2023-01-25T12:49:33.618Z,2.27
2023-01-25T12:52:06.968Z,2.38
2023-01-25T12:54:41.693Z,2.25
2023-01-25T12:57:25.448Z,2.30
2023-01-25T13:00:11.226Z,2.39
2023-01-25T13:03:15.948Z,2.40
2023-01-25T13:06:12.163Z,2.23
2023-01-25T13:08:54.948Z,2.18
2023-01-25T13:11:35.392Z,2.30
2023-01-25T13:14:16.954Z,2.27
2023-01-25T13:16:50.199Z,2.28
2023-01-25T13:19:44.243Z,2.23
2023-01-25T13:22:12.414Z,2.34
2023-01-25T13:25:17.206Z,2.43
2023-01-25T13:27:43.600Z,2.53
2023-01-25T13:30:15.918Z,2.41
2023-01-25T13:32:44.990Z,2.22
2023-01-25T13:35:30.363Z,2.18
2023-01-25T13:37:59.210Z,2.30
2023-01-25T13:40:32.747Z,2.26
2023-01-25T13:43:01.793Z,2.30
2023-01-25T13:45:29.070Z,2.28
2023-01-25T13:48:04.026Z,2.20
2023-01-25T13:50:34.458Z,2.33
2023-01-25T13:53:06.901Z,2.38
2023-01-25T13:55:42.197Z,2.29
2023-01-25T13:58:22.312Z,2.31
2023-01-25T14:00:51.562Z,2.40
2023-01-25T14:03:19.516Z,2.28
2023-01-25T14:05:51.099Z,2.35
2023-01-25T14:08:19.540Z,2.39
2023-01-25T14:10:46.868Z,2.41
2023-01-25T14:13:17.291Z,2.22
2023-01-25T14:15:58.627Z,2.14
2023-01-25T14:18:38.368Z,2.13
2023-01-25T14:21:15.599Z,1.92
2023-01-25T14:23:42.029Z,2.07
2023-01-25T14:26:19.097Z,2.11
2023-01-25T14:28:59.069Z,2.09
2023-01-25T14:31:35.747Z,2.15
2023-01-25T14:34:04.649Z,2.14
2023-01-25T14:36:34.273Z,2.22
2023-01-25T14:39:02.071Z,2.21
2023-01-25T14:41:33.719Z,2.25
2023-01-25T14:44:06.387Z,2.16
2023-01-25T14:46:34.785Z,2.17
2023-01-25T14:49:26.818Z,2.27
2023-01-25T14:52:02.738Z,2.20
2023-01-25T14:54:31.717Z,2.17
2023-01-25T14:57:01.884Z,2.21
2023-01-25T14:59:36.807Z,2.26
2023-01-25T15:02:17.913Z,2.25
2023-01-25T15:05:14.693Z,2.25
2023-01-25T15:07:45.930Z,2.26
2023-01-25T15:10:20.325Z,2.19
2023-01-25T15:13:21.811Z,2.18
2023-01-25T15:15:59.885Z,2.23
2023-01-25T15:18:51.000Z,2.30
2023-01-25T15:21:20.145Z,2.25
2023-01-25T15:23:49.111Z,2.31
2023-01-25T15:26:34.965Z,2.19
2023-01-25T15:29:05.555Z,2.09
2023-01-25T15:31:34.532Z,2.01
2023-01-25T15:34:01.749Z,2.07
2023-01-25T15:36:29.856Z,2.15
2023-01-25T15:38:56.260Z,2.14
2023-01-25T15:41:22.842Z,2.36
2023-01-25T15:43:49.915Z,2.34
2023-01-25T15:46:27.806Z,2.39
2023-01-25T15:48:55.073Z,2.52
2023-01-25T15:51:21.540Z,2.44
2023-01-25T15:53:47.991Z,2.40
2023-01-25T15:56:20.285Z,2.33
2023-01-25T15:58:55.472Z,2.36
2023-01-25T16:01:27.216Z,2.38
2023-01-25T16:03:58.258Z,2.35
2023-01-25T16:06:42.802Z,2.29
2023-01-25T16:09:24.162Z,2.30
2023-01-25T16:11:56.142Z,2.37
2023-01-25T16:14:28.808Z,2.14
2023-01-25T16:16:57.389Z,2.16
2023-01-25T16:19:24.315Z,2.27
2023-01-25T16:21:51.174Z,2.15
2023-01-25T16:24:18.522Z,2.22
2023-01-25T16:26:56.349Z,2.20
2023-01-25T16:29:23.253Z,2.04
2023-01-25T16:31:50.620Z,2.12
2023-01-25T16:34:26.551Z,2.07
2023-01-25T16:36:53.171Z,2.15
2023-01-25T16:39:25.250Z,2.10
2023-01-25T16:41:51.682Z,2.19
2023-01-25T16:44:18.290Z,2.23
2023-01-25T16:46:44.989Z,1.99
2023-01-25T16:49:16.329Z,2.06
2023-01-25T16:51:42.846Z,2.13
2023-01-25T16:54:11.727Z,2.18
2023-01-25T16:56:38.350Z,2.16
2023-01-25T16:59:06.228Z,2.18
2023-01-25T17:01:33.081Z,2.17
2023-01-25T17:03:59.605Z,2.15
2023-01-25T17:06:32.552Z,2.08
2023-01-25T17:09:09.308Z,1.82
2023-01-25T17:11:39.879Z,1.77
2023-01-25T17:14:06.951Z,1.60
2023-01-25T17:16:33.785Z,1.63
2023-01-25T17:19:04.498Z,1.46
2023-01-25T17:21:31.673Z,1.44
2023-01-25T17:23:59.578Z,1.53
2023-01-25T17:26:28.053Z,1.62
2023-01-25T17:28:59.041Z,1.78
2023-01-25T17:31:28.785Z,1.82
2023-01-25T17:33:56.001Z,1.69
2023-01-25T17:36:22.785Z,1.78
2023-01-25T17:38:49.515Z,1.77
2023-01-25T17:41:16.999Z,1.56
2023-01-25T17:43:43.756Z,1.69
2023-01-25T17:46:29.846Z,1.75
2023-01-25T17:48:57.241Z,1.63
2023-01-25T17:51:25.073Z,1.71
2023-01-25T17:53:52.607Z,1.71
2023-01-25T17:56:19.213Z,1.72
2023-01-25T17:58:46.247Z,1.63
2023-01-25T18:01:14.497Z,1.71
2023-01-25T18:03:42.451Z,1.76
2023-01-25T18:06:09.554Z,1.87
2023-01-25T18:08:40.873Z,1.87
2023-01-25T18:11:12.273Z,1.99
2023-01-25T18:13:40.152Z,1.86
2023-01-25T18:16:08.304Z,1.87
2023-01-25T18:18:34.922Z,1.84
2023-01-25T18:21:05.686Z,1.74
2023-01-25T18:23:32.121Z,1.52
2023-01-25T18:25:58.645Z,1.60
2023-01-25T18:28:26.906Z,1.66
2023-01-25T18:30:58.988Z,1.73
2023-01-25T18:33:25.892Z,1.70
2023-01-25T18:35:53.887Z,1.76
2023-01-25T18:38:20.535Z,1.76
2023-01-25T18:40:47.265Z,1.74
2023-01-25T18:43:13.793Z,1.78
2023-01-25T18:45:40.224Z,1.71
2023-01-25T18:48:06.739Z,1.78
2023-01-25T18:50:33.557Z,1.72
2023-01-25T18:52:59.993Z,1.64
2023-01-25T18:55:27.640Z,1.70
2023-01-25T18:57:54.062Z,1.61
2023-01-25T19:00:20.468Z,1.55
2023-01-25T19:02:46.920Z,1.53
2023-01-25T19:05:14.271Z,1.58
2023-01-25T19:07:40.714Z,1.71
2023-01-25T19:10:07.433Z,1.76
2023-01-25T19:12:33.948Z,1.69
2023-01-25T19:15:00.375Z,1.56
2023-01-25T19:17:26.819Z,1.56
2023-01-25T19:19:53.219Z,1.51
2023-01-25T19:22:19.705Z,1.49
2023-01-25T19:24:46.084Z,1.57
2023-01-25T19:27:12.504Z,1.68
2023-01-25T19:29:39.019Z,1.63
2023-01-25T19:32:05.545Z,1.64
2023-01-25T19:34:31.948Z,1.58
2023-01-25T19:36:58.418Z,1.59
2023-01-25T19:39:24.930Z,1.63
2023-01-25T19:41:53.222Z,1.55
2023-01-25T19:44:20.636Z,1.66
2023-01-25T19:46:47.220Z,1.66
2023-01-25T19:49:14.426Z,1.65
2023-01-25T19:51:45.364Z,1.58
2023-01-25T19:54:16.590Z,1.56
2023-01-25T19:56:45.591Z,1.52
2023-01-25T19:59:14.852Z,1.59
2023-01-25T20:01:43.872Z,1.44
2023-01-25T20:04:16.249Z,1.46
2023-01-25T20:06:43.046Z,1.58
2023-01-25T20:09:13.879Z,1.49
2023-01-25T20:11:40.889Z,1.30
2023-01-25T20:14:08.301Z,1.24
2023-01-25T20:16:35.416Z,1.40
2023-01-25T20:19:02.593Z,1.30
2023-01-25T20:21:31.106Z,1.21
2023-01-25T20:24:00.475Z,1.30
2023-01-25T20:26:30.288Z,1.26
2023-01-25T20:28:58.732Z,1.43
2023-01-25T20:31:34.623Z,1.47
2023-01-25T20:34:07.292Z,1.46
2023-01-25T20:36:34.839Z,1.51
2023-01-25T20:39:01.885Z,1.49
2023-01-25T20:41:28.448Z,1.39
2023-01-25T20:43:57.294Z,1.49
2023-01-25T20:46:24.944Z,1.42
2023-01-25T20:48:53.421Z,1.40
2023-01-25T20:51:21.507Z,1.41
2023-01-25T20:53:49.887Z,1.42
2023-01-25T20:56:18.046Z,1.48
2023-01-25T20:58:51.096Z,1.60
2023-01-25T21:01:21.211Z,1.53
2023-01-25T21:03:48.320Z,1.44
2023-01-25T21:06:15.455Z,1.49
2023-01-25T21:08:42.032Z,1.46
2023-01-25T21:11:09.196Z,1.50
2023-01-25T21:13:35.997Z,1.49
2023-01-25T21:16:23.985Z,1.53
2023-01-25T21:18:55.974Z,1.47
2023-01-25T21:21:25.835Z,1.56
2023-01-25T21:23:52.355Z,1.67
2023-01-25T21:26:24.120Z,1.64
2023-01-25T21:28:51.567Z,1.53
2023-01-25T21:31:20.776Z,1.49
2023-01-25T21:33:48.037Z,1.52
2023-01-25T21:36:16.621Z,1.52
2023-01-25T21:38:44.890Z,1.40
2023-01-25T21:41:13.777Z,1.41
2023-01-25T21:43:58.638Z,1.27
2023-01-25T21:46:26.926Z,1.38
2023-01-25T21:49:17.593Z,1.34
2023-01-25T21:51:52.039Z,1.23
2023-01-25T21:54:26.598Z,1.29
2023-01-25T21:56:55.420Z,1.21
2023-01-25T21:59:22.652Z,1.26
2023-01-25T22:01:50.268Z,1.30
2023-01-25T22:04:17.967Z,1.42
2023-01-25T22:06:44.794Z,1.48
2023-01-25T22:09:13.127Z,1.47
2023-01-25T22:11:39.663Z,1.34
2023-01-25T22:14:06.140Z,1.40
2023-01-25T22:16:32.834Z,1.40
2023-01-25T22:19:00.089Z,1.34
2023-01-25T22:21:31.911Z,1.45
2023-01-25T22:24:00.452Z,1.51
2023-01-25T22:26:50.232Z,1.60
2023-01-25T22:29:16.665Z,1.64
2023-01-25T22:31:43.824Z,1.68
2023-01-25T22:34:10.553Z,1.55
2023-01-25T22:36:38.083Z,1.52
2023-01-25T22:39:04.476Z,1.38
2023-01-25T22:41:32.877Z,1.40
2023-01-25T22:43:59.293Z,1.34
2023-01-25T22:46:28.133Z,1.30
2023-01-25T22:48:55.141Z,1.36
2023-01-25T22:51:25.590Z,1.38
2023-01-25T22:53:52.604Z,1.52
2023-01-25T22:56:22.657Z,1.44
2023-01-25T22:58:49.868Z,1.46
2023-01-25T23:01:19.017Z,1.52
2023-01-25T23:03:45.911Z,1.60
2023-01-25T23:06:18.029Z,1.53
2023-01-25T23:08:44.506Z,1.57
2023-01-25T23:11:13.889Z,1.59
2023-01-25T23:13:40.796Z,1.55
2023-01-25T23:16:09.680Z,1.49
2023-01-25T23:18:51.775Z,1.52
2023-01-25T23:21:21.674Z,1.54
2023-01-25T23:23:48.340Z,1.60
2023-01-25T23:26:15.870Z,1.54
2023-01-25T23:28:43.001Z,1.59
2023-01-25T23:31:17.604Z,1.59
2023-01-25T23:33:46.115Z,1.61
2023-01-25T23:36:18.545Z,1.63
2023-01-25T23:38:46.208Z,1.62
2023-01-25T23:41:13.889Z,1.59
2023-01-25T23:43:40.902Z,1.54
2023-01-25T23:46:07.780Z,1.59
2023-01-25T23:48:34.229Z,1.52
2023-01-25T23:51:00.687Z,1.49
2023-01-25T23:53:27.744Z,1.56
2023-01-25T23:55:58.745Z,1.61
2023-01-25T23:58:25.730Z,1.54
